createdAt,value
2023-04-09T00:02:00.580Z,76.51
2023-04-09T00:07:24.123Z,76.10
2023-04-09T00:12:16.521Z,76.72
2023-04-09T00:17:16.423Z,76.42
2023-04-09T00:22:16.386Z,75.90
2023-04-09T00:27:16.316Z,75.90
2023-04-09T00:32:16.245Z,77.65
2023-04-09T00:37:16.177Z,76.42
2023-04-09T00:42:16.119Z,76.93
2023-04-09T00:47:16.026Z,76.25
2023-04-09T00:52:15.992Z,76.86
2023-04-09T00:57:15.907Z,76.55
2023-04-09T01:02:15.956Z,76.35
2023-04-09T01:07:15.787Z,76.35
2023-04-09T01:12:15.720Z,75.42
2023-04-09T01:17:15.622Z,77.58
2023-04-09T01:22:15.581Z,77.58
2023-04-09T01:27:15.511Z,77.58
2023-04-09T01:32:15.444Z,76.65
2023-04-09T01:37:15.372Z,78.92
2023-04-09T01:42:15.330Z,77.99
2023-04-09T01:47:15.238Z,78.40
2023-04-09T01:52:15.192Z,79.22
2023-04-09T01:57:15.243Z,79.77
2023-04-09T02:02:15.113Z,80.39
2023-04-09T02:07:14.990Z,81.93
2023-04-09T02:12:14.918Z,81.97
2023-04-09T02:17:14.847Z,82.59
2023-04-09T02:22:14.819Z,82.39
2023-04-09T02:27:14.735Z,82.18
2023-04-09T02:32:14.669Z,81.56
2023-04-09T02:37:14.580Z,82.39
2023-04-09T02:42:14.532Z,79.61
2023-04-09T02:47:14.451Z,79.91
2023-04-09T02:52:14.416Z,78.47
2023-04-09T02:57:14.304Z,78.47
2023-04-09T03:02:14.495Z,80.94
2023-04-09T03:07:14.206Z,80.67
2023-04-09T03:12:14.132Z,78.92
2023-04-09T03:17:14.062Z,78.17
2023-04-09T03:22:14.018Z,78.68
2023-04-09T03:27:13.928Z,77.38
2023-04-09T03:32:13.879Z,78.27
2023-04-09T03:37:13.804Z,77.75
2023-04-09T03:42:13.731Z,78.72
2023-04-09T03:47:13.673Z,78.20
2023-04-09T03:52:13.627Z,78.51
2023-04-09T03:57:13.542Z,79.23
2023-04-09T04:02:13.531Z,77.69
2023-04-09T04:07:13.417Z,78.20
2023-04-09T04:12:14.159Z,78.41
2023-04-09T04:17:13.285Z,79.33
2023-04-09T04:22:13.234Z,79.03
2023-04-09T04:27:13.120Z,77.38
2023-04-09T04:32:13.097Z,78.10
2023-04-09T04:37:13.030Z,80.16
2023-04-09T04:42:12.949Z,79.99
2023-04-09T04:47:12.889Z,79.16
2023-04-09T04:52:12.835Z,77.51
2023-04-09T04:57:12.744Z,77.31
2023-04-09T05:02:12.822Z,80.36
2023-04-09T05:07:12.612Z,82.21
2023-04-09T05:12:12.563Z,81.60
2023-04-09T05:17:12.560Z,82.32
2023-04-09T05:22:12.435Z,81.91
2023-04-09T05:27:12.346Z,79.68
2023-04-09T05:32:12.314Z,79.23
2023-04-09T05:37:12.250Z,79.50
2023-04-09T05:42:12.226Z,80.43
2023-04-09T05:47:12.088Z,77.55
2023-04-09T05:52:12.036Z,77.65
2023-04-09T05:57:11.964Z,79.03
2023-04-09T06:02:23.461Z,78.61
2023-04-09T06:07:15.614Z,79.09
2023-04-09T06:12:15.568Z,77.65
2023-04-09T06:17:15.517Z,77.00
2023-04-09T06:22:15.424Z,76.79
2023-04-09T06:27:15.346Z,76.04
2023-04-09T06:32:15.276Z,75.08
2023-04-09T06:37:15.224Z,78.43
2023-04-09T06:42:15.134Z,76.86
2023-04-09T06:47:15.085Z,72.75
2023-04-09T06:52:14.995Z,67.38
2023-04-09T06:57:14.948Z,62.11
2023-04-09T07:02:14.975Z,59.03
2023-04-09T07:07:14.847Z,57.32
2023-04-09T07:12:14.760Z,55.27
2023-04-09T07:17:14.685Z,56.23
2023-04-09T07:22:14.598Z,53.25
2023-04-09T07:27:14.579Z,52.79
2023-04-09T07:32:14.483Z,51.86
2023-04-09T07:37:14.497Z,52.34
2023-04-09T07:42:14.350Z,52.14
2023-04-09T07:47:14.342Z,51.61
2023-04-09T07:52:14.208Z,51.25
2023-04-09T07:57:14.166Z,49.67
2023-04-09T08:02:15.430Z,51.38
2023-04-09T08:07:14.085Z,48.61
2023-04-09T08:12:13.980Z,48.66
2023-04-09T08:17:13.914Z,47.66
2023-04-09T08:22:13.833Z,45.77
2023-04-09T08:27:13.795Z,44.82
2023-04-09T08:32:13.789Z,44.02
2023-04-09T08:37:13.630Z,43.33
2023-04-09T08:42:13.553Z,41.91
2023-04-09T08:47:13.502Z,42.55
2023-04-09T08:52:13.517Z,40.23
2023-04-09T08:57:13.391Z,40.72
2023-04-09T09:02:13.415Z,38.31
2023-04-09T09:07:13.236Z,39.32
2023-04-09T09:12:13.137Z,38.84
2023-04-09T09:17:13.140Z,38.90
2023-04-09T09:22:13.028Z,42.13
2023-04-09T09:27:12.978Z,41.53
2023-04-09T09:32:13.017Z,44.51
2023-04-09T09:37:12.876Z,47.70
2023-04-09T09:42:12.847Z,49.66
2023-04-09T09:47:12.818Z,39.62
2023-04-09T09:52:12.946Z,38.28
2023-04-09T09:57:12.586Z,43.16
2023-04-09T10:02:12.785Z,36.99
2023-04-09T10:07:12.472Z,38.62
2023-04-09T10:12:12.363Z,36.66
2023-04-09T10:17:12.338Z,36.35
2023-04-09T10:22:12.232Z,34.01
2023-04-09T10:27:15.096Z,36.29
2023-04-09T10:32:12.134Z,37.54
2023-04-09T10:37:12.056Z,43.71
2023-04-09T10:42:11.970Z,46.79
2023-04-09T10:47:11.929Z,41.47
2023-04-09T10:52:12.603Z,45.61
2023-04-09T10:57:11.806Z,47.20
2023-04-09T11:02:11.805Z,46.25
2023-04-09T11:07:11.676Z,45.68
2023-04-09T11:12:11.578Z,48.78
2023-04-09T11:17:11.552Z,42.98
2023-04-09T11:22:11.519Z,45.90
2023-04-09T11:27:11.385Z,47.31
2023-04-09T11:32:11.309Z,47.43
2023-04-09T11:37:11.263Z,46.25
2023-04-09T11:42:11.341Z,46.60
2023-04-09T11:47:11.185Z,47.61
2023-04-09T11:52:11.045Z,46.50
2023-04-09T11:57:10.995Z,47.16
2023-04-09T12:02:10.963Z,44.95
2023-04-09T12:07:10.858Z,46.01
2023-04-09T12:12:10.748Z,46.60
2023-04-09T12:17:10.741Z,46.32
2023-04-09T12:22:10.643Z,48.59
2023-04-09T12:27:10.580Z,47.25
2023-04-09T12:32:10.630Z,47.13
2023-04-09T12:37:10.461Z,46.72
2023-04-09T12:42:10.389Z,46.87
2023-04-09T12:47:10.331Z,47.30
2023-04-09T12:52:10.241Z,47.30
2023-04-09T12:57:10.194Z,47.50
2023-04-09T13:02:10.241Z,48.33
2023-04-09T13:07:10.129Z,47.95
2023-04-09T13:12:09.983Z,48.46
2023-04-09T13:17:10.030Z,47.14
2023-04-09T13:22:09.860Z,48.54
2023-04-09T13:27:09.830Z,47.44
2023-04-09T13:32:09.710Z,46.51
2023-04-09T13:37:09.669Z,46.79
2023-04-09T13:42:13.593Z,46.70
2023-04-09T13:47:09.519Z,43.02
2023-04-09T13:52:09.446Z,43.63
2023-04-09T13:57:09.386Z,44.70
2023-04-09T14:02:09.419Z,44.82
2023-04-09T14:07:09.323Z,44.78
2023-04-09T14:12:09.169Z,43.34
2023-04-09T14:17:09.149Z,44.29
2023-04-09T14:22:09.162Z,45.23
2023-04-09T14:27:08.980Z,45.75
2023-04-09T14:32:08.954Z,45.27
2023-04-09T14:37:08.864Z,45.79
2023-04-09T14:42:08.777Z,46.89
2023-04-09T14:47:08.813Z,46.91
2023-04-09T14:52:08.660Z,45.72
2023-04-09T14:57:08.611Z,47.19
2023-04-09T15:02:08.631Z,45.12
2023-04-09T15:07:08.484Z,43.77
2023-04-09T15:12:08.399Z,42.23
2023-04-09T15:17:08.337Z,44.49
2023-04-09T15:22:08.269Z,46.18
2023-04-09T15:27:08.234Z,45.47
2023-04-09T15:32:08.182Z,45.15
2023-04-09T15:37:08.117Z,46.08
2023-04-09T15:42:10.298Z,46.02
2023-04-09T15:47:07.935Z,47.20
2023-04-09T15:52:07.841Z,48.52
2023-04-09T15:57:07.869Z,46.35
2023-04-09T16:02:07.758Z,44.70
2023-04-09T16:07:07.635Z,45.11
2023-04-09T16:12:07.603Z,46.12
2023-04-09T16:17:07.702Z,46.02
2023-04-09T16:22:07.474Z,44.78
2023-04-09T16:27:07.413Z,46.25
2023-04-09T16:32:07.361Z,46.57
2023-04-09T16:37:07.253Z,48.22
2023-04-09T16:42:07.215Z,49.03
2023-04-09T16:47:07.137Z,48.67
2023-04-09T16:52:07.068Z,49.91
2023-04-09T16:57:06.980Z,50.34
2023-04-09T17:02:07.258Z,51.06
2023-04-09T17:07:06.855Z,50.78
2023-04-09T17:12:06.792Z,50.87
2023-04-09T17:17:07.197Z,50.87
2023-04-09T17:22:06.679Z,51.41
2023-04-09T17:27:06.612Z,52.02
2023-04-09T17:32:06.545Z,53.47
2023-04-09T17:37:06.457Z,53.47
2023-04-09T17:42:06.413Z,54.61
2023-04-09T17:47:06.322Z,54.41
2023-04-09T17:52:06.282Z,54.54
2023-04-09T17:57:06.200Z,54.24
2023-04-09T18:02:06.254Z,55.79
2023-04-09T18:07:06.094Z,56.91
2023-04-09T18:12:06.018Z,59.80
2023-04-09T18:17:05.949Z,63.81
2023-04-09T18:22:05.869Z,64.34
2023-04-09T18:27:05.839Z,65.84
2023-04-09T18:32:05.825Z,65.87
2023-04-09T18:37:05.688Z,66.61
2023-04-09T18:42:05.626Z,68.69
2023-04-09T18:47:05.576Z,67.08
2023-04-09T18:52:05.494Z,65.86
2023-04-09T18:57:05.412Z,65.78
2023-04-09T19:02:05.733Z,65.89
2023-04-09T19:07:05.336Z,66.19
2023-04-09T19:12:05.213Z,67.43
2023-04-09T19:17:05.172Z,68.07
2023-04-09T19:22:05.078Z,67.66
2023-04-09T19:27:05.061Z,67.56
2023-04-09T19:32:04.949Z,67.28
2023-04-09T19:37:04.913Z,67.49
2023-04-09T19:42:04.872Z,67.79
2023-04-09T19:47:04.783Z,69.26
2023-04-09T19:52:04.668Z,68.24
2023-04-09T19:57:04.644Z,70.60
2023-04-09T20:02:04.571Z,69.40
2023-04-09T20:07:04.559Z,71.55
2023-04-09T20:12:04.485Z,70.15
2023-04-09T20:17:04.401Z,69.53
2023-04-09T20:22:04.259Z,69.74
2023-04-09T20:27:04.277Z,69.53
2023-04-09T20:32:04.239Z,69.53
2023-04-09T20:37:04.090Z,72.00
2023-04-09T20:42:04.053Z,72.51
2023-04-09T20:47:03.963Z,73.16
2023-04-09T20:52:03.892Z,72.47
2023-04-09T20:57:03.848Z,73.71
2023-04-09T21:02:04.003Z,74.57
2023-04-09T21:07:03.711Z,74.60
2023-04-09T21:12:03.613Z,75.63
2023-04-09T21:17:03.686Z,75.46
2023-04-09T21:22:03.504Z,77.31
2023-04-09T21:27:03.431Z,77.55
2023-04-09T21:32:03.367Z,77.28
2023-04-09T21:37:03.296Z,77.08
2023-04-09T21:42:03.242Z,77.28
2023-04-09T21:47:03.183Z,76.56
2023-04-09T21:52:03.090Z,78.00
2023-04-09T21:57:03.038Z,78.97
2023-04-09T22:02:03.017Z,78.90
2023-04-09T22:07:02.930Z,78.69
2023-04-09T22:12:02.932Z,78.45
2023-04-09T22:17:02.797Z,78.24
2023-04-09T22:22:02.723Z,77.94
2023-04-09T22:27:02.632Z,78.38
2023-04-09T22:32:02.617Z,79.41
2023-04-09T22:37:02.476Z,78.94
2023-04-09T22:42:02.430Z,78.73
2023-04-09T22:47:02.363Z,79.04
2023-04-09T22:52:02.306Z,78.08
2023-04-09T22:57:02.346Z,78.38
2023-04-09T23:02:02.223Z,78.18
2023-04-09T23:07:02.137Z,78.69
2023-04-09T23:12:02.041Z,78.83
2023-04-09T23:17:01.989Z,80.48
2023-04-09T23:22:01.936Z,80.32
2023-04-09T23:27:01.932Z,81.59
2023-04-09T23:32:01.860Z,80.76
2023-04-09T23:37:01.689Z,81.84
2023-04-09T23:42:01.630Z,81.63
2023-04-09T23:47:01.659Z,82.29
2023-04-09T23:52:01.502Z,83.98
2023-04-09T23:57:01.434Z,84.08
